createdAt,value
2022-08-21T00:01:34.113Z,8.60
2022-08-21T00:04:55.848Z,5.30
2022-08-21T00:10:56.849Z,6.90
2022-08-21T00:16:37.145Z,8.60
2022-08-21T00:19:18.332Z,4.10
2022-08-21T00:22:26.027Z,5.50
2022-08-21T00:25:34.237Z,8.00
2022-08-21T00:28:43.426Z,9.30
2022-08-21T00:32:09.610Z,8.00
2022-08-21T00:34:59.250Z,6.50
2022-08-21T00:38:08.813Z,5.40
2022-08-21T00:40:46.049Z,5.70
2022-08-21T00:43:22.441Z,5.20
2022-08-21T00:56:34.750Z,8.00
2022-08-21T01:03:25.375Z,3.90
2022-08-21T01:09:08.524Z,6.60
2022-08-21T01:11:59.189Z,8.40
2022-08-21T01:14:49.509Z,11.80
2022-08-21T01:17:57.157Z,8.90
2022-08-21T01:21:05.094Z,5.00
2022-08-21T01:27:20.805Z,7.10
2022-08-21T01:30:47.107Z,12.20
2022-08-21T01:33:37.758Z,8.70
2022-08-21T01:39:36.416Z,7.30
2022-08-21T01:42:10.311Z,6.10
2022-08-21T01:44:43.137Z,8.80
2022-08-21T01:47:51.937Z,3.90
2022-08-21T01:50:42.451Z,7.40
2022-08-21T01:54:08.310Z,8.80
2022-08-21T01:59:50.617Z,5.70
2022-08-21T02:02:23.125Z,10.50
2022-08-21T02:07:49.373Z,6.30
2022-08-21T02:13:49.903Z,9.40
2022-08-21T02:17:00.475Z,8.40
2022-08-21T02:20:00.323Z,6.60
2022-08-21T02:22:32.875Z,9.30
2022-08-21T02:25:42.585Z,8.20
2022-08-21T02:31:07.935Z,6.10
2022-08-21T02:33:40.664Z,6.80
2022-08-21T02:39:56.671Z,5.30
2022-08-21T02:43:08.650Z,8.40
2022-08-21T02:48:51.534Z,10.00
2022-08-21T02:51:59.001Z,10.30
2022-08-21T02:54:31.537Z,7.90
2022-08-21T02:57:40.061Z,10.60
2022-08-21T03:00:31.701Z,6.20
2022-08-21T03:06:31.010Z,4.60
2022-08-21T03:09:21.114Z,6.80
2022-08-21T03:15:38.849Z,7.00
2022-08-21T03:18:46.498Z,13.80
2022-08-21T03:21:53.594Z,6.60
2022-08-21T03:24:44.505Z,6.80
2022-08-21T03:28:09.125Z,5.90
2022-08-21T03:31:03.152Z,4.60
2022-08-21T03:33:35.712Z,4.40
2022-08-21T03:36:11.028Z,4.40
2022-08-21T03:39:19.782Z,7.60
2022-08-21T03:42:26.812Z,9.40
2022-08-21T03:45:01.855Z,5.40
2022-08-21T03:48:09.375Z,7.70
2022-08-21T03:51:02.891Z,5.20
2022-08-21T03:54:28.840Z,5.40
2022-08-21T03:57:56.672Z,5.20
2022-08-21T04:00:46.233Z,6.10
2022-08-21T04:03:18.996Z,4.60
2022-08-21T04:06:10.891Z,6.80
2022-08-21T04:09:37.007Z,8.90
2022-08-21T04:12:27.697Z,9.50
2022-08-21T04:15:02.858Z,8.10
2022-08-21T04:18:11.791Z,12.80
2022-08-21T04:21:01.718Z,8.20
2022-08-21T04:23:53.027Z,9.20
2022-08-21T04:26:25.500Z,5.80
2022-08-21T04:29:35.180Z,8.70
2022-08-21T04:35:54.762Z,4.60
2022-08-21T04:39:21.818Z,4.50
2022-08-21T04:41:57.897Z,4.60
2022-08-21T04:44:51.502Z,6.70
2022-08-21T04:47:24.782Z,7.70
2022-08-21T04:50:17.179Z,6.50
2022-08-21T04:53:20.333Z,6.60
2022-08-21T04:56:15.014Z,8.40
2022-08-21T05:02:49.187Z,6.10
2022-08-21T05:05:56.431Z,4.10
2022-08-21T05:11:57.467Z,6.10
2022-08-21T05:17:37.149Z,5.00
2022-08-21T05:24:29.457Z,3.90
2022-08-21T05:30:28.617Z,10.70
2022-08-21T05:37:07.470Z,3.80
2022-08-21T05:46:48.444Z,19.90
2022-08-21T05:49:38.246Z,17.80
2022-08-21T05:52:44.820Z,15.10
2022-08-21T05:55:17.442Z,11.40
2022-08-21T05:58:43.704Z,11.50
2022-08-21T06:01:17.099Z,12.60
2022-08-21T06:04:24.149Z,11.60
2022-08-21T06:07:13.609Z,7.10
2022-08-21T06:13:12.816Z,10.10
2022-08-21T06:15:45.610Z,17.60
2022-08-21T06:18:18.855Z,10.90
2022-08-21T06:21:12.393Z,8.90
2022-08-21T06:23:45.668Z,5.50
2022-08-21T06:26:35.793Z,5.80
2022-08-21T06:32:35.843Z,7.80
2022-08-21T06:35:44.717Z,5.20
2022-08-21T06:38:53.817Z,8.00
2022-08-21T06:44:38.821Z,5.00
2022-08-21T06:47:11.339Z,6.70
2022-08-21T06:53:16.880Z,3.10
2022-08-21T06:59:31.773Z,3.80
2022-08-21T07:02:40.739Z,3.20
2022-08-21T07:05:33.757Z,3.40
2022-08-21T07:08:25.308Z,7.00
2022-08-21T07:11:02.641Z,7.40
2022-08-21T07:17:20.454Z,3.70
2022-08-21T07:20:12.129Z,4.10
2022-08-21T07:23:25.026Z,11.50
2022-08-21T07:29:22.669Z,20.00
2022-08-21T07:39:09.050Z,10.10
2022-08-21T07:42:15.682Z,7.20
2022-08-21T07:48:51.958Z,5.70
2022-08-21T07:51:45.799Z,7.80
2022-08-21T07:54:37.437Z,8.30
2022-08-21T07:57:47.792Z,7.90
2022-08-21T08:04:26.476Z,4.50
2022-08-21T08:06:59.042Z,3.70
2022-08-21T08:10:24.535Z,6.00
2022-08-21T08:13:51.026Z,4.20
2022-08-21T08:16:40.678Z,6.40
2022-08-21T08:27:13.851Z,5.30
2022-08-21T08:30:22.840Z,2.40
2022-08-21T08:36:08.098Z,7.60
2022-08-21T08:38:40.809Z,4.60
2022-08-21T08:42:33.945Z,2.70
2022-08-21T08:45:31.139Z,7.80
2022-08-21T08:48:46.355Z,3.50
2022-08-21T08:51:47.071Z,2.30
2022-08-21T08:55:06.207Z,5.00
2022-08-21T09:01:58.958Z,2.20
2022-08-21T09:04:32.423Z,4.50
2022-08-21T09:07:45.095Z,2.50
2022-08-21T09:10:40.421Z,2.80
2022-08-21T09:14:29.522Z,2.30
2022-08-21T09:20:42.272Z,3.00
2022-08-21T09:26:34.014Z,5.70
2022-08-21T09:32:41.540Z,7.50
2022-08-21T09:35:51.327Z,2.30
2022-08-21T09:38:50.022Z,2.80
2022-08-21T09:41:58.123Z,2.70
2022-08-21T09:47:39.203Z,5.20
2022-08-21T09:50:48.761Z,2.90
2022-08-21T09:53:26.306Z,4.50
2022-08-21T09:56:19.114Z,4.00
2022-08-21T09:58:56.087Z,3.80
2022-08-21T10:01:30.073Z,2.40
2022-08-21T10:04:56.497Z,3.10
2022-08-21T10:08:04.310Z,2.50
2022-08-21T10:11:13.092Z,2.90
2022-08-21T10:14:16.034Z,2.20
2022-08-21T10:17:00.523Z,5.00
2022-08-21T10:26:56.689Z,3.20
2022-08-21T10:33:39.493Z,2.10
2022-08-21T10:36:38.445Z,7.10
2022-08-21T10:39:35.119Z,1.70
2022-08-21T10:42:48.893Z,2.30
2022-08-21T10:48:55.309Z,1.70
2022-08-21T10:58:40.585Z,3.10
2022-08-21T11:02:16.273Z,4.40
2022-08-21T11:05:30.395Z,2.90
2022-08-21T11:11:38.287Z,2.80
2022-08-21T11:15:03.313Z,3.20
2022-08-21T11:25:10.253Z,1.60
2022-08-21T11:28:04.560Z,9.70
2022-08-21T11:31:16.870Z,5.50
2022-08-21T11:34:41.771Z,1.50
2022-08-21T11:37:49.033Z,1.50
2022-08-21T11:40:46.926Z,4.10
2022-08-21T11:47:02.251Z,1.80
2022-08-21T11:49:52.196Z,5.50
2022-08-21T11:56:09.966Z,3.30
2022-08-21T11:59:02.418Z,1.10
2022-08-21T12:08:01.086Z,1.60
2022-08-21T12:14:17.830Z,1.10
2022-08-21T12:16:52.378Z,1.20
2022-08-21T12:19:35.816Z,1.30
2022-08-21T12:22:37.621Z,0.80
2022-08-21T12:25:30.765Z,1.00
2022-08-21T12:28:39.960Z,0.80
2022-08-21T12:31:47.023Z,1.60
2022-08-21T12:38:09.909Z,3.90
2022-08-21T12:41:05.674Z,1.80
2022-08-21T12:44:03.320Z,1.40
2022-08-21T12:51:01.444Z,0.90
2022-08-21T12:59:56.335Z,1.40
2022-08-21T13:03:23.032Z,0.60
2022-08-21T13:06:16.312Z,4.60
2022-08-21T13:09:29.955Z,1.30
2022-08-21T13:12:40.298Z,1.00
2022-08-21T13:15:13.532Z,0.70
2022-08-21T13:18:21.898Z,0.70
2022-08-21T13:21:04.942Z,0.60
2022-08-21T13:24:38.837Z,1.50
2022-08-21T13:27:23.266Z,0.40
2022-08-21T13:30:27.138Z,0.50
2022-08-21T13:33:37.607Z,0.80
2022-08-21T13:36:34.015Z,1.00
2022-08-21T13:42:33.833Z,0.40
2022-08-21T13:48:22.462Z,1.40
2022-08-21T13:50:55.088Z,0.40
2022-08-21T13:53:53.139Z,0.70
2022-08-21T13:56:48.796Z,0.50
2022-08-21T13:59:40.401Z,0.40
2022-08-21T14:02:18.329Z,1.70
2022-08-21T14:05:34.803Z,0.60
2022-08-21T14:11:37.335Z,1.90
2022-08-21T14:14:28.457Z,1.80
2022-08-21T14:17:24.432Z,1.10
2022-08-21T14:20:14.311Z,2.50
2022-08-21T14:26:52.383Z,0.80
2022-08-21T14:30:17.783Z,0.40
2022-08-21T14:33:28.607Z,0.50
2022-08-21T14:36:37.737Z,0.40
2022-08-21T14:39:27.883Z,4.00
2022-08-21T14:42:02.093Z,0.50
2022-08-21T14:50:47.855Z,0.70
2022-08-21T14:57:03.892Z,1.90
2022-08-21T14:59:53.475Z,2.40
2022-08-21T15:02:47.513Z,0.60
2022-08-21T15:09:23.810Z,1.60
2022-08-21T15:12:15.824Z,0.70
2022-08-21T15:18:16.162Z,0.90
2022-08-21T15:27:58.003Z,2.50
2022-08-21T15:33:56.337Z,1.70
2022-08-21T15:37:09.082Z,2.30
2022-08-21T15:39:59.146Z,2.10
2022-08-21T15:42:32.592Z,0.90
2022-08-21T15:45:40.732Z,3.60
2022-08-21T15:48:30.566Z,3.20
2022-08-21T15:51:21.491Z,3.60
2022-08-21T15:54:28.466Z,5.40
2022-08-21T16:00:46.154Z,1.00
2022-08-21T16:03:37.139Z,1.50
2022-08-21T16:08:59.203Z,2.40
2022-08-21T16:11:49.083Z,1.40
2022-08-21T16:14:40.484Z,0.70
2022-08-21T16:20:43.178Z,1.00
2022-08-21T16:24:08.739Z,1.50
2022-08-21T16:26:58.528Z,0.60
2022-08-21T16:30:09.623Z,0.60
2022-08-21T16:36:49.247Z,1.20
2022-08-21T16:39:55.986Z,1.00
2022-08-21T16:43:05.921Z,5.90
2022-08-21T16:46:33.441Z,2.30
2022-08-21T16:49:42.002Z,4.00
2022-08-21T16:52:16.741Z,1.00
2022-08-21T16:57:55.797Z,0.80
2022-08-21T17:00:46.990Z,4.60
2022-08-21T17:04:31.406Z,7.00
2022-08-21T17:07:21.266Z,2.50
2022-08-21T17:10:13.614Z,4.10
2022-08-21T17:22:27.518Z,2.40
2022-08-21T17:25:17.635Z,1.00
2022-08-21T17:28:10.728Z,3.10
2022-08-21T17:31:06.933Z,1.10
2022-08-21T17:36:41.021Z,1.10
2022-08-21T17:39:21.976Z,1.10
2022-08-21T17:42:12.258Z,1.70
2022-08-21T17:44:46.825Z,4.30
2022-08-21T17:48:15.285Z,5.70
